Huvudsida
METAR-TAF:

METAR-TAF

Flygplatser :

Ramsar Airport

Ramsar, Iran

latitud: 36-54N, longitud: 050-40E, höjd: -23 m

Aktuellt väderrapport

Denna rapport gjordes för 58 minuter sedan, klockan 12:00 UTC
Vind 2 kt från ost/nordost
Temperatur 18°C
Fuktighet 73%
Tryck 1023 hPa
Sikt 10 km eller mer
Brutna moln på en höjd av 2500 ft

METAR: OINR 121200Z 07002KT 9999 BKN025 18/13 Q1023

Tid: 16:28 (12:58 UTC)


TAF: saknas

Aktuella väderrapporter och prognoser från 4000 flygplatser (METAR- och TAF-rapporter).

De tillgängliga stationerna syns som gula och röda prickar på kartan.

För musen över prickarna för att se namnen på stationerna.

Klicka sedan för att få väderrapporter och prognoser.

För att ändra kartan: Klicka på de gröna knapparna med ett svart kors på för att zooma in; den gröna knappen med ett streck på för att zooma ut; eller på de gröna pilarna för angränsande kartor.


METAR-TAF: